Airport ICAO


13:44 UTC

11°C


An affordable passengers' Moving Map for your aircraft. Made for the iPad and the iPhone
More information here

EGSS Stansted


London UNITED KINGDOM   VFR


METAR EGSS 231320Z AUTO 31009KT 9999 NCD 11/07 Q1019 0h24min

TAF EGSS 231100Z 2312/2418 34012KT 9999 FEW035 TEMPO 2313/2318 33015G25KT 2h44min





NOTAMS

OPEN